createdAt,value
2022-12-11T00:00:23.709Z,101063.72
2022-12-11T00:02:50.704Z,101062.91
2022-12-11T00:05:17.865Z,101059.28
2022-12-11T00:07:45.196Z,101062.69
2022-12-11T00:10:12.390Z,101057.78
2022-12-11T00:12:38.990Z,101066.50
2022-12-11T00:15:06.759Z,101065.59
2022-12-11T00:17:33.627Z,101054.66
2022-12-11T00:20:00.764Z,101059.66
2022-12-11T00:22:30.343Z,101063.28
2022-12-11T00:24:57.210Z,101062.47
2022-12-11T00:27:25.369Z,101058.94
2022-12-11T00:29:52.959Z,101061.63
2022-12-11T00:32:19.791Z,101058.47
2022-12-11T00:34:46.921Z,101063.59
2022-12-11T00:37:14.649Z,101057.66
2022-12-11T00:39:41.623Z,101069.66
2022-12-11T00:42:09.177Z,101065.25
2022-12-11T00:44:36.085Z,101062.91
2022-12-11T00:47:03.611Z,101072.38
2022-12-11T00:49:30.868Z,101071.53
2022-12-11T00:51:58.333Z,101068.94
2022-12-11T00:54:25.664Z,101066.50
2022-12-11T00:56:52.716Z,101062.91
2022-12-11T00:59:20.006Z,101068.16
2022-12-11T01:01:46.700Z,101056.81
2022-12-11T01:04:13.713Z,101061.84
2022-12-11T01:06:40.732Z,101064.41
2022-12-11T01:09:26.905Z,101052.41
2022-12-11T01:11:53.865Z,101054.50
2022-12-11T01:14:20.769Z,101058.88
2022-12-11T01:16:48.478Z,101059.75
2022-12-11T01:19:15.964Z,101059.97
2022-12-11T01:21:42.785Z,101064.91
2022-12-11T01:24:09.455Z,101054.50
2022-12-11T01:26:36.510Z,101052.75
2022-12-11T01:29:04.063Z,101052.91
2022-12-11T01:31:31.198Z,101053.41
2022-12-11T01:33:58.318Z,101048.97
2022-12-11T01:36:25.561Z,101058.53
2022-12-11T01:38:54.344Z,101052.75
2022-12-11T01:41:21.634Z,101058.00
2022-12-11T01:43:57.748Z,101061.59
2022-12-11T01:46:27.736Z,101052.75
2022-12-11T01:48:55.757Z,101052.97
2022-12-11T01:51:23.833Z,101053.78
2022-12-11T01:53:57.204Z,101047.50
2022-12-11T01:56:25.227Z,101046.81
2022-12-11T01:58:59.795Z,101051.22
2022-12-11T02:01:43.491Z,101049.38
2022-12-11T02:04:11.589Z,101044.34
2022-12-11T02:06:43.832Z,101047.63
2022-12-11T02:09:21.760Z,101042.25
2022-12-11T02:12:17.902Z,101041.31
2022-12-11T02:15:03.677Z,101038.75
2022-12-11T02:17:41.379Z,101038.75
2022-12-11T02:20:34.042Z,101035.59
2022-12-11T02:23:13.359Z,101029.94
2022-12-11T02:25:49.122Z,101031.00
2022-12-11T02:28:32.154Z,101032.66
2022-12-11T02:31:07.073Z,101023.28
2022-12-11T02:33:46.901Z,101025.03
2022-12-11T02:36:18.152Z,101027.72
2022-12-11T02:38:50.797Z,101020.88
2022-12-11T02:41:20.848Z,101027.94
2022-12-11T02:43:49.354Z,101019.44
2022-12-11T02:46:20.450Z,101023.91
2022-12-11T02:48:50.207Z,101019.53
2022-12-11T02:51:22.042Z,101021.09
2022-12-11T02:53:51.758Z,101014.28
2022-12-11T02:56:34.075Z,101010.06
2022-12-11T02:59:08.580Z,101009.25
2022-12-11T03:01:36.627Z,101019.75
2022-12-11T03:04:05.628Z,101018.00
2022-12-11T03:06:37.610Z,101014.41
2022-12-11T03:09:06.863Z,101012.00
2022-12-11T03:11:33.819Z,101007.72
2022-12-11T03:14:04.813Z,101011.84
2022-12-11T03:16:37.861Z,101002.47
2022-12-11T03:19:34.620Z,101012.00
2022-12-11T03:22:10.166Z,101007.06
2022-12-11T03:24:46.069Z,100999.41
2022-12-11T03:27:19.589Z,100996.03
2022-12-11T03:30:02.348Z,101010.53
2022-12-11T03:32:36.158Z,101011.34
2022-12-11T03:35:06.160Z,101007.31
2022-12-11T03:37:38.532Z,101008.00
2022-12-11T03:40:12.130Z,101007.97
2022-12-11T03:42:42.256Z,101000.25
2022-12-11T03:45:10.039Z,101006.19
2022-12-11T03:47:39.999Z,101003.72
2022-12-11T03:50:10.940Z,101009.69
2022-12-11T03:52:45.755Z,101004.66
2022-12-11T03:55:16.024Z,100999.41
2022-12-11T03:57:43.710Z,101002.28
2022-12-11T04:00:14.518Z,100998.78
2022-12-11T04:02:41.680Z,101003.13
2022-12-11T04:05:09.917Z,100999.72
2022-12-11T04:07:36.855Z,101006.72
2022-12-11T04:10:05.781Z,100999.63
2022-12-11T04:12:32.574Z,101004.22
2022-12-11T04:15:02.131Z,100997.34
2022-12-11T04:17:52.973Z,100998.09
2022-12-11T04:20:39.254Z,100982.78
2022-12-11T04:23:29.591Z,100984.50
2022-12-11T04:26:11.524Z,100984.50
2022-12-11T04:28:39.491Z,100982.66
2022-12-11T04:31:10.756Z,100981.72
2022-12-11T04:33:37.549Z,100977.47
2022-12-11T04:36:04.745Z,100977.53
2022-12-11T04:38:31.894Z,100972.28
2022-12-11T04:41:05.628Z,100977.72
2022-12-11T04:43:32.642Z,100976.84
2022-12-11T04:46:05.267Z,100976.84
2022-12-11T04:48:32.981Z,100974.44
2022-12-11T04:51:00.529Z,100966.69
2022-12-11T04:53:28.386Z,100971.91
2022-12-11T04:55:55.939Z,100975.97
2022-12-11T04:58:24.583Z,100968.38
2022-12-11T05:00:51.826Z,100967.34
2022-12-11T05:03:18.982Z,100963.19
2022-12-11T05:05:50.669Z,100968.97
2022-12-11T05:08:21.462Z,100963.94
2022-12-11T05:10:58.980Z,100972.63
2022-12-11T05:13:27.597Z,100970.03
2022-12-11T05:15:54.948Z,100974.22
2022-12-11T05:18:22.472Z,100973.50
2022-12-11T05:21:00.613Z,100979.59
2022-12-11T05:23:29.054Z,100970.94
2022-12-11T05:25:58.402Z,100977.94
2022-12-11T05:28:27.755Z,100976.28
2022-12-11T05:30:58.695Z,100978.03
2022-12-11T05:33:26.005Z,100976.28
2022-12-11T05:35:53.627Z,100974.44
2022-12-11T05:38:20.894Z,100974.56
2022-12-11T05:40:59.611Z,100974.56
2022-12-11T05:43:28.285Z,100977.94
2022-12-11T05:45:55.666Z,100969.31
2022-12-11T05:48:23.308Z,100968.47
2022-12-11T05:50:58.787Z,100965.78
2022-12-11T05:53:25.817Z,100964.16
2022-12-11T05:55:53.039Z,100960.75
2022-12-11T05:58:20.527Z,100965.91
2022-12-11T06:00:48.395Z,100962.41
2022-12-11T06:03:15.326Z,100969.31
2022-12-11T06:05:43.127Z,100963.13
2022-12-11T06:08:10.476Z,100963.22
2022-12-11T06:10:37.385Z,100965.91
2022-12-11T06:13:04.491Z,100966.00
2022-12-11T06:15:32.694Z,100968.47
2022-12-11T06:17:59.592Z,100960.84
2022-12-11T06:20:26.728Z,100953.81
2022-12-11T06:22:54.433Z,100953.13
2022-12-11T06:25:21.541Z,100956.59
2022-12-11T06:27:48.483Z,100954.00
2022-12-11T06:30:16.494Z,100952.22
2022-12-11T06:32:44.307Z,100954.09
2022-12-11T06:35:12.243Z,100957.56
2022-12-11T06:37:40.461Z,100955.81
2022-12-11T06:40:11.594Z,100959.22
2022-12-11T06:42:39.020Z,100953.31
2022-12-11T06:45:06.708Z,100963.69
2022-12-11T06:47:34.984Z,100959.31
2022-12-11T06:50:02.383Z,100955.88
2022-12-11T06:52:29.583Z,100965.25
2022-12-11T06:54:57.028Z,100958.44
2022-12-11T06:57:24.225Z,100956.00
2022-12-11T06:59:52.116Z,100957.75
2022-12-11T07:02:20.410Z,100957.88
2022-12-11T07:04:53.345Z,100953.00
2022-12-11T07:07:22.208Z,100953.69
2022-12-11T07:09:49.012Z,100954.47
2022-12-11T07:12:17.019Z,100953.78
2022-12-11T07:14:43.951Z,100954.66
2022-12-11T07:17:10.938Z,100959.81
2022-12-11T07:19:37.641Z,100961.66
2022-12-11T07:22:04.638Z,100969.38
2022-12-11T07:24:31.698Z,100970.28
2022-12-11T07:26:58.844Z,100971.84
2022-12-11T07:29:25.775Z,100963.19
2022-12-11T07:31:52.727Z,100970.19
2022-12-11T07:34:20.037Z,100966.81
2022-12-11T07:36:47.040Z,100968.63
2022-12-11T07:39:14.456Z,100968.63
2022-12-11T07:41:41.634Z,100970.28
2022-12-11T07:44:08.647Z,100978.09
2022-12-11T07:46:35.403Z,100980.75
2022-12-11T07:49:02.768Z,100974.56
2022-12-11T07:51:31.689Z,100982.44
2022-12-11T07:54:01.048Z,100983.03
2022-12-11T07:56:29.284Z,100983.97
2022-12-11T07:58:56.629Z,100985.44
2022-12-11T08:01:26.283Z,100980.19
2022-12-11T08:03:54.132Z,100988.91
2022-12-11T08:06:29.761Z,100994.84
2022-12-11T08:08:58.545Z,100993.75
2022-12-11T08:11:26.680Z,100988.59
2022-12-11T08:13:54.583Z,100998.13
2022-12-11T08:16:22.469Z,100983.47
2022-12-11T08:18:50.361Z,100986.66
2022-12-11T08:21:20.439Z,100983.28
2022-12-11T08:23:48.126Z,100981.50
2022-12-11T08:26:19.006Z,100988.31
2022-12-11T08:28:46.052Z,100981.72
2022-12-11T08:31:14.764Z,100984.50
2022-12-11T08:33:42.632Z,100977.72
2022-12-11T08:36:11.682Z,100978.31
2022-12-11T08:38:38.566Z,100980.19
2022-12-11T08:41:19.821Z,100981.72
2022-12-11T08:43:48.168Z,100980.09
2022-12-11T08:46:15.769Z,100984.34
2022-12-11T08:48:43.377Z,100976.47
2022-12-11T08:51:15.543Z,100973.06
2022-12-11T08:53:42.647Z,100979.41
2022-12-11T08:56:15.276Z,100973.28
2022-12-11T08:58:44.187Z,100978.50
2022-12-11T09:01:14.381Z,100974.31
2022-12-11T09:03:41.543Z,100971.75
2022-12-11T09:06:11.829Z,100975.72
2022-12-11T09:08:39.202Z,100974.94
2022-12-11T09:11:14.844Z,100974.94
2022-12-11T09:13:42.536Z,100969.81
2022-12-11T09:16:13.312Z,100978.44
2022-12-11T09:18:41.211Z,100978.53
2022-12-11T09:21:11.214Z,100974.25
2022-12-11T09:23:38.191Z,100975.03
2022-12-11T09:26:07.539Z,100978.53
2022-12-11T09:28:34.747Z,100968.84
2022-12-11T09:31:01.531Z,100975.84
2022-12-11T09:33:28.388Z,100968.16
2022-12-11T09:36:02.840Z,100967.38
2022-12-11T09:38:30.931Z,100977.00
2022-12-11T09:40:59.390Z,100966.72
2022-12-11T09:43:42.104Z,100975.25
2022-12-11T09:46:15.115Z,100973.38
2022-12-11T09:48:46.185Z,100976.91
2022-12-11T09:51:30.739Z,100982.78
2022-12-11T09:54:02.874Z,100972.50
2022-12-11T09:56:33.882Z,100974.06
2022-12-11T09:59:23.979Z,100968.03
2022-12-11T10:01:59.775Z,100971.44
2022-12-11T10:04:37.547Z,100970.63
2022-12-11T10:07:10.036Z,100980.09
2022-12-11T10:09:50.307Z,100975.03
2022-12-11T10:12:47.378Z,100977.53
2022-12-11T10:15:39.497Z,100968.00
2022-12-11T10:18:14.148Z,100965.78
2022-12-11T10:20:42.865Z,100967.34
2022-12-11T10:23:16.955Z,100960.44
2022-12-11T10:26:02.510Z,100962.81
2022-12-11T10:28:29.947Z,100964.56
2022-12-11T10:31:15.996Z,100959.72
2022-12-11T10:34:04.202Z,100962.91
2022-12-11T10:36:42.067Z,100958.44
2022-12-11T10:39:34.862Z,100954.97
2022-12-11T10:42:14.267Z,100952.72
2022-12-11T10:44:41.480Z,100951.03
2022-12-11T10:47:14.797Z,100951.19
2022-12-11T10:49:53.229Z,100953.00
2022-12-11T10:52:23.709Z,100936.03
2022-12-11T10:54:58.587Z,100936.84
2022-12-11T10:57:34.023Z,100934.28
2022-12-11T11:00:01.957Z,100931.00
2022-12-11T11:02:38.491Z,100925.75
2022-12-11T11:05:17.081Z,100925.94
2022-12-11T11:07:44.381Z,100928.47
2022-12-11T11:10:11.055Z,100923.19
2022-12-11T11:12:40.966Z,100932.53
2022-12-11T11:15:19.003Z,100918.97
2022-12-11T11:17:55.399Z,100923.38
2022-12-11T11:20:26.691Z,100919.13
2022-12-11T11:22:57.430Z,100921.00
2022-12-11T11:25:27.556Z,100927.88
2022-12-11T11:28:06.772Z,100913.34
2022-12-11T11:30:40.668Z,100918.75
2022-12-11T11:33:22.510Z,100916.03
2022-12-11T11:35:57.871Z,100910.78
2022-12-11T11:38:46.482Z,100914.34
2022-12-11T11:41:34.591Z,100910.19
2022-12-11T11:44:07.194Z,100915.31
2022-12-11T11:46:38.097Z,100917.88
2022-12-11T11:49:24.453Z,100909.44
2022-12-11T11:52:01.637Z,100913.00
2022-12-11T11:54:43.204Z,100904.94
2022-12-11T11:57:29.504Z,100903.00
2022-12-11T12:00:09.821Z,100895.28
2022-12-11T12:02:37.624Z,100901.09
2022-12-11T12:05:05.447Z,100903.03
2022-12-11T12:07:57.426Z,100899.72
2022-12-11T12:10:40.306Z,100902.25
2022-12-11T12:13:48.663Z,100897.03
2022-12-11T12:16:55.448Z,100899.59
2022-12-11T12:19:46.560Z,100898.66
2022-12-11T12:22:36.659Z,100900.41
2022-12-11T12:25:14.667Z,100897.16
2022-12-11T12:28:06.069Z,100896.44
2022-12-11T12:30:59.456Z,100893.28
2022-12-11T12:33:40.263Z,100881.22
2022-12-11T12:36:46.069Z,100885.50
2022-12-11T12:39:24.968Z,100879.59
2022-12-11T12:42:07.270Z,100876.50
2022-12-11T12:44:46.696Z,100870.72
2022-12-11T12:47:17.975Z,100876.91
2022-12-11T12:49:48.787Z,100871.47
2022-12-11T12:52:20.055Z,100876.38
2022-12-11T12:55:10.561Z,100870.72
2022-12-11T12:57:40.343Z,100870.56
2022-12-11T13:00:13.095Z,100869.13
2022-12-11T13:02:51.029Z,100865.03
2022-12-11T13:05:27.685Z,100866.00
2022-12-11T13:08:01.310Z,100866.63
2022-12-11T13:10:38.700Z,100869.22
2022-12-11T13:13:31.987Z,100869.28
2022-12-11T13:16:27.516Z,100873.88
2022-12-11T13:18:54.918Z,100872.69
2022-12-11T13:21:30.676Z,100864.16
2022-12-11T13:24:12.946Z,100864.19
2022-12-11T13:26:40.751Z,100869.47
2022-12-11T13:29:34.419Z,100880.16
2022-12-11T13:32:23.510Z,100872.44
2022-12-11T13:34:58.989Z,100869.84
2022-12-11T13:37:39.658Z,100875.47
2022-12-11T13:40:15.375Z,100870.25
2022-12-11T13:42:59.628Z,100864.84
2022-12-11T13:45:39.839Z,100868.16
2022-12-11T13:48:18.440Z,100868.16
2022-12-11T13:50:46.231Z,100878.44
2022-12-11T13:53:16.726Z,100870.00
2022-12-11T13:55:45.620Z,100879.31
2022-12-11T13:58:21.041Z,100882.94
2022-12-11T14:01:02.990Z,100873.44
2022-12-11T14:03:32.753Z,100876.81
2022-12-11T14:06:01.893Z,100876.06
2022-12-11T14:08:35.779Z,100870.09
2022-12-11T14:11:03.642Z,100871.84
2022-12-11T14:13:40.374Z,100866.69
2022-12-11T14:16:08.011Z,100880.34
2022-12-11T14:18:36.964Z,100884.53
2022-12-11T14:21:06.031Z,100890.31
2022-12-11T14:23:37.555Z,100883.22
2022-12-11T14:26:19.693Z,100892.69
2022-12-11T14:28:47.020Z,100886.66
2022-12-11T14:31:18.539Z,100891.88
2022-12-11T14:33:51.776Z,100891.13
2022-12-11T14:36:19.575Z,100885.97
2022-12-11T14:38:52.019Z,100893.78
2022-12-11T14:41:25.119Z,100894.47
2022-12-11T14:43:57.740Z,100896.84
2022-12-11T14:46:44.207Z,100906.63
2022-12-11T14:49:35.928Z,100908.41
2022-12-11T14:52:04.625Z,100899.69
2022-12-11T14:54:39.739Z,100908.41
2022-12-11T14:57:08.194Z,100917.44
2022-12-11T14:59:41.250Z,100916.50
2022-12-11T15:02:32.783Z,100923.34
2022-12-11T15:05:10.665Z,100912.97
2022-12-11T15:07:38.125Z,100920.03
2022-12-11T15:10:05.638Z,100910.72
2022-12-11T15:12:37.383Z,100919.91
2022-12-11T15:15:07.478Z,100920.50
2022-12-11T15:17:37.392Z,100918.84
2022-12-11T15:20:11.750Z,100912.19
2022-12-11T15:22:43.325Z,100920.91
2022-12-11T15:25:19.488Z,100922.47
2022-12-11T15:27:51.360Z,100922.28
2022-12-11T15:30:18.005Z,100924.00
2022-12-11T15:32:45.747Z,100923.16
2022-12-11T15:35:26.037Z,100919.72
2022-12-11T15:37:54.843Z,100929.00
2022-12-11T15:40:22.466Z,100924.78
2022-12-11T15:42:50.416Z,100931.06
2022-12-11T15:45:24.527Z,100928.81
2022-12-11T15:47:52.845Z,100925.41
2022-12-11T15:50:23.027Z,100926.34
2022-12-11T15:52:51.833Z,100924.28
2022-12-11T15:55:20.675Z,100927.97
2022-12-11T15:57:53.209Z,100928.75
2022-12-11T16:00:20.645Z,100926.25
2022-12-11T16:02:47.905Z,100927.13
2022-12-11T16:05:15.103Z,100927.13
2022-12-11T16:07:42.368Z,100931.69
2022-12-11T16:10:16.061Z,100918.66
2022-12-11T16:12:43.662Z,100928.09
2022-12-11T16:15:15.314Z,100924.69
2022-12-11T16:17:45.241Z,100919.63
2022-12-11T16:20:13.541Z,100921.28
2022-12-11T16:22:40.304Z,100919.00
2022-12-11T16:25:10.095Z,100918.09
2022-12-11T16:27:37.554Z,100930.22
2022-12-11T16:30:05.254Z,100919.22
2022-12-11T16:32:31.997Z,100918.38
2022-12-11T16:35:02.019Z,100915.19
2022-12-11T16:37:29.340Z,100911.88
2022-12-11T16:39:56.028Z,100908.47
2022-12-11T16:42:23.184Z,100913.53
2022-12-11T16:44:50.128Z,100913.53
2022-12-11T16:47:16.812Z,100921.78
2022-12-11T16:49:44.053Z,100914.88
2022-12-11T16:52:10.935Z,100913.06
2022-12-11T16:54:38.125Z,100911.50
2022-12-11T16:57:05.846Z,100913.16
2022-12-11T16:59:37.220Z,100913.16
2022-12-11T17:02:05.244Z,100913.34
2022-12-11T17:04:32.587Z,100914.13
2022-12-11T17:06:59.506Z,100915.00
2022-12-11T17:09:26.476Z,100913.25
2022-12-11T17:11:53.505Z,100916.63
2022-12-11T17:14:20.329Z,100908.09
2022-12-11T17:16:48.164Z,100909.09
2022-12-11T17:19:15.760Z,100906.25
2022-12-11T17:21:47.100Z,100908.00
2022-12-11T17:24:18.200Z,100914.94
2022-12-11T17:26:45.613Z,100914.88
2022-12-11T17:29:13.214Z,100911.50
2022-12-11T17:31:40.476Z,100912.97
2022-12-11T17:34:07.645Z,100910.63
2022-12-11T17:36:34.659Z,100912.28
2022-12-11T17:39:01.677Z,100908.09
2022-12-11T17:41:29.019Z,100905.63
2022-12-11T17:43:56.634Z,100915.09
2022-12-11T17:46:23.793Z,100927.28
2022-12-11T17:48:50.772Z,100911.03
2022-12-11T17:51:24.149Z,100913.63
2022-12-11T17:53:52.669Z,100910.34
2022-12-11T17:56:19.931Z,100906.91
2022-12-11T17:58:46.859Z,100916.34
2022-12-11T18:01:14.146Z,100911.97
2022-12-11T18:03:41.901Z,100910.72
2022-12-11T18:06:12.729Z,100908.28
2022-12-11T18:08:39.835Z,100905.56
2022-12-11T18:11:09.566Z,100904.81
2022-12-11T18:13:36.516Z,100913.34
2022-12-11T18:16:07.307Z,100905.75
2022-12-11T18:18:34.596Z,100904.81
2022-12-11T18:21:01.824Z,100904.50
2022-12-11T18:23:29.133Z,100905.28
2022-12-11T18:25:55.939Z,100909.44
2022-12-11T18:28:23.397Z,100914.88
2022-12-11T18:30:50.226Z,100914.69
2022-12-11T18:33:17.480Z,100921.41
2022-12-11T18:35:44.708Z,100912.81
2022-12-11T18:38:11.965Z,100909.53
2022-12-11T18:40:39.483Z,100918.00
2022-12-11T18:43:06.770Z,100916.25
2022-12-11T18:45:34.867Z,100919.44
2022-12-11T18:48:01.760Z,100921.97
2022-12-11T18:50:29.608Z,100915.97
2022-12-11T18:52:56.979Z,100919.44
2022-12-11T18:55:24.193Z,100917.03
2022-12-11T18:57:50.998Z,100918.09
2022-12-11T19:00:18.623Z,100921.78
2022-12-11T19:02:46.430Z,100917.66
2022-12-11T19:05:13.844Z,100915.72
2022-12-11T19:07:41.091Z,100906.06
2022-12-11T19:10:09.020Z,100911.13
2022-12-11T19:12:36.269Z,100916.34
2022-12-11T19:15:03.516Z,100912.88
2022-12-11T19:17:30.537Z,100916.34
2022-12-11T19:19:57.755Z,100914.75
2022-12-11T19:22:24.811Z,100920.78
2022-12-11T19:24:51.718Z,100923.34
2022-12-11T19:27:18.885Z,100916.59
2022-12-11T19:29:46.156Z,100908.91
2022-12-11T19:32:12.974Z,100908.09
2022-12-11T19:34:41.221Z,100903.25
2022-12-11T19:37:08.299Z,100899.78
2022-12-11T19:39:37.806Z,100913.53
2022-12-11T19:42:05.055Z,100911.78
2022-12-11T19:44:32.181Z,100917.00
2022-12-11T19:46:59.599Z,100926.38
2022-12-11T19:49:26.265Z,100917.00
2022-12-11T19:51:53.745Z,100920.53
2022-12-11T19:54:20.570Z,100923.03
2022-12-11T19:56:47.570Z,100912.81
2022-12-11T19:59:17.705Z,100925.47
2022-12-11T20:01:49.779Z,100920.78
2022-12-11T20:04:18.001Z,100919.19
2022-12-11T20:06:46.506Z,100913.34
2022-12-11T20:09:14.032Z,100919.38
2022-12-11T20:11:43.893Z,100923.63
2022-12-11T20:14:19.305Z,100924.63
2022-12-11T20:17:09.956Z,100918.78
2022-12-11T20:19:33.633Z,100918.06
2022-12-11T20:22:00.738Z,100918.78
2022-12-11T20:24:27.348Z,100920.47
2022-12-11T20:26:54.614Z,100917.00
2022-12-11T20:29:21.437Z,100920.34
2022-12-11T20:31:50.410Z,100908.47
2022-12-11T20:34:20.246Z,100911.06
2022-12-11T20:36:48.056Z,100910.16
2022-12-11T20:39:15.674Z,100905.81
2022-12-11T20:41:43.097Z,100904.91
2022-12-11T20:44:10.379Z,100900.41
2022-12-11T20:46:37.416Z,100897.72
2022-12-11T20:49:04.491Z,100895.84
2022-12-11T20:51:32.739Z,100895.97
2022-12-11T20:54:00.352Z,100886.56
2022-12-11T20:56:29.787Z,100892.78
2022-12-11T20:58:58.095Z,100891.13
2022-12-11T21:01:28.257Z,100892.97
2022-12-11T21:03:55.865Z,100903.34
2022-12-11T21:06:22.790Z,100899.69
2022-12-11T21:08:49.624Z,100899.88
2022-12-11T21:11:16.717Z,100894.31
2022-12-11T21:13:43.857Z,100897.81
2022-12-11T21:16:11.456Z,100897.09
2022-12-11T21:18:39.661Z,100898.78
2022-12-11T21:21:07.483Z,100903.06
2022-12-11T21:23:34.594Z,100899.69
2022-12-11T21:26:01.943Z,100899.69
2022-12-11T21:28:35.037Z,100902.19
2022-12-11T21:31:09.406Z,100904.59
2022-12-11T21:33:36.394Z,100906.25
2022-12-11T21:36:05.865Z,100899.63
2022-12-11T21:38:33.726Z,100906.72
2022-12-11T21:41:18.979Z,100896.44
2022-12-11T21:44:47.024Z,100905.09
2022-12-11T21:46:34.886Z,100907.47
2022-12-11T21:49:02.023Z,100910.53
2022-12-11T21:51:36.539Z,100910.31
2022-12-11T21:54:05.966Z,100909.75
2022-12-11T21:56:33.485Z,100904.81
2022-12-11T21:59:01.577Z,100909.97
2022-12-11T22:01:32.218Z,100910.16
2022-12-11T22:03:59.668Z,100915.28
2022-12-11T22:06:27.138Z,100918.78
2022-12-11T22:08:54.275Z,100925.66
2022-12-11T22:11:23.968Z,100925.75
2022-12-11T22:13:50.661Z,100919.13
2022-12-11T22:16:18.840Z,100931.19
2022-12-11T22:18:46.018Z,100924.28
2022-12-11T22:21:13.182Z,100924.28
2022-12-11T22:23:41.245Z,100931.09
2022-12-11T22:26:11.241Z,100926.75
2022-12-11T22:28:38.153Z,100928.44
2022-12-11T22:31:09.504Z,100932.75
2022-12-11T22:33:36.766Z,100929.34
2022-12-11T22:36:03.618Z,100932.84
2022-12-11T22:38:30.705Z,100931.13
2022-12-11T22:40:57.599Z,100926.91
2022-12-11T22:43:24.539Z,100933.75
2022-12-11T22:45:51.737Z,100934.66
2022-12-11T22:48:19.612Z,100938.28
2022-12-11T22:50:46.444Z,100935.88
2022-12-11T22:53:14.104Z,100940.94
2022-12-11T22:55:41.044Z,100946.00
2022-12-11T22:58:08.508Z,100927.91
2022-12-11T23:00:36.243Z,100938.34
2022-12-11T23:03:04.807Z,100933.22
2022-12-11T23:05:31.742Z,100935.81
2022-12-11T23:07:59.127Z,100930.41
2022-12-11T23:10:27.508Z,100936.50
2022-12-11T23:12:54.174Z,100927.78
2022-12-11T23:15:21.406Z,100922.47
2022-12-11T23:17:48.440Z,100923.81
2022-12-11T23:20:15.777Z,100931.44
2022-12-11T23:22:43.110Z,100930.81
2022-12-11T23:25:14.286Z,100927.28
2022-12-11T23:27:41.614Z,100930.81
2022-12-11T23:30:08.888Z,100930.63
2022-12-11T23:32:37.019Z,100930.63
2022-12-11T23:35:05.169Z,100925.47
2022-12-11T23:37:32.366Z,100935.94
2022-12-11T23:39:59.396Z,100932.53
2022-12-11T23:42:27.012Z,100931.97
2022-12-11T23:44:53.731Z,100938.19
2022-12-11T23:47:20.446Z,100936.41
2022-12-11T23:49:47.288Z,100936.34
2022-12-11T23:52:14.187Z,100940.09
2022-12-11T23:54:40.999Z,100947.81
2022-12-11T23:57:07.925Z,100950.19
2022-12-11T23:59:35.934Z,100945.13
